createdAt,value
2018-11-14T00:00:07.777Z,99.99
2018-11-14T00:01:07.768Z,99.99
2018-11-14T00:02:07.732Z,99.99
2018-11-14T00:03:07.712Z,99.99
2018-11-14T00:04:07.689Z,99.99
2018-11-14T00:05:07.661Z,99.99
2018-11-14T00:06:07.642Z,99.99
2018-11-14T00:07:07.615Z,99.99
2018-11-14T00:08:07.587Z,99.99
2018-11-14T00:09:07.571Z,99.99
2018-11-14T00:10:07.573Z,99.99
2018-11-14T00:11:07.518Z,99.99
2018-11-14T00:12:07.493Z,99.99
2018-11-14T00:13:07.477Z,99.99
2018-11-14T00:14:07.452Z,99.99
2018-11-14T00:15:07.423Z,99.99
2018-11-14T00:16:07.407Z,99.99
2018-11-14T00:17:07.388Z,99.99
2018-11-14T00:18:07.358Z,99.99
2018-11-14T00:19:07.324Z,99.99
2018-11-14T00:20:07.307Z,99.99
2018-11-14T00:21:07.291Z,99.99
2018-11-14T00:22:07.262Z,99.99
2018-11-14T00:23:07.233Z,99.99
2018-11-14T00:24:07.211Z,99.99
2018-11-14T00:25:07.185Z,99.99
2018-11-14T00:26:07.166Z,99.99
2018-11-14T00:27:07.144Z,99.99
2018-11-14T00:28:07.114Z,99.99
2018-11-14T00:29:07.092Z,99.99
2018-11-14T00:30:07.073Z,99.99
2018-11-14T00:31:07.051Z,99.99
2018-11-14T00:32:07.027Z,99.99
2018-11-14T00:33:07.068Z,99.99
2018-11-14T00:34:06.974Z,99.99
2018-11-14T00:35:06.955Z,99.99
2018-11-14T00:36:06.932Z,99.99
2018-11-14T00:37:06.913Z,99.99
2018-11-14T00:38:06.881Z,99.99
2018-11-14T00:39:06.852Z,99.99
2018-11-14T00:40:06.836Z,99.99
2018-11-14T00:41:06.810Z,99.99
2018-11-14T00:42:06.788Z,99.99
2018-11-14T00:43:06.762Z,99.99
2018-11-14T00:44:06.741Z,99.99
2018-11-14T00:45:06.713Z,99.99
2018-11-14T00:46:06.698Z,99.99
2018-11-14T00:47:06.665Z,99.99
2018-11-14T00:48:06.639Z,99.99
2018-11-14T00:49:06.617Z,99.99
2018-11-14T00:50:06.592Z,99.99
2018-11-14T00:51:06.565Z,99.99
2018-11-14T00:52:06.549Z,99.99
2018-11-14T00:53:06.524Z,99.99
2018-11-14T00:54:06.496Z,99.99
2018-11-14T00:55:06.471Z,99.99
2018-11-14T00:56:06.452Z,99.99
2018-11-14T00:57:06.426Z,99.99
2018-11-14T00:58:06.400Z,99.99
2018-11-14T00:59:06.378Z,99.99
2018-11-14T01:00:06.863Z,99.99
2018-11-14T01:01:06.330Z,99.99
2018-11-14T01:02:06.311Z,99.99
2018-11-14T01:03:06.288Z,99.99
2018-11-14T01:04:06.257Z,99.99
2018-11-14T01:05:06.235Z,99.99
2018-11-14T01:06:06.212Z,99.99
2018-11-14T01:07:06.187Z,99.99
2018-11-14T01:08:06.167Z,99.99
2018-11-14T01:09:06.199Z,99.99
2018-11-14T01:10:06.123Z,99.99
2018-11-14T01:11:06.097Z,99.99
2018-11-14T01:12:06.071Z,99.99
2018-11-14T01:13:06.103Z,99.99
2018-11-14T01:14:06.036Z,99.99
2018-11-14T01:15:06.001Z,99.99
2018-11-14T01:16:05.972Z,99.99
2018-11-14T01:17:05.957Z,99.99
2018-11-14T01:18:06.263Z,99.99
2018-11-14T01:19:05.900Z,99.99
2018-11-14T01:20:05.881Z,99.99
2018-11-14T01:21:05.852Z,99.99
2018-11-14T01:22:05.826Z,99.99
2018-11-14T01:23:05.807Z,99.99
2018-11-14T01:24:05.779Z,99.99
2018-11-14T01:25:05.762Z,99.99
2018-11-14T01:26:05.741Z,99.99
2018-11-14T01:27:05.733Z,99.99
2018-11-14T01:28:05.696Z,99.99
2018-11-14T01:29:05.667Z,99.99
2018-11-14T01:30:05.641Z,99.99
2018-11-14T01:31:05.616Z,99.99
2018-11-14T01:32:05.587Z,99.99
2018-11-14T01:33:05.571Z,99.99
2018-11-14T01:34:05.622Z,99.99
2018-11-14T01:35:05.515Z,99.99
2018-11-14T01:36:05.499Z,99.99
2018-11-14T01:37:05.474Z,99.99
2018-11-14T01:38:05.448Z,99.99
2018-11-14T01:39:05.420Z,99.99
2018-11-14T01:40:05.394Z,99.99
2018-11-14T01:41:05.408Z,99.99
2018-11-14T01:42:05.352Z,99.99
2018-11-14T01:43:05.330Z,99.99
2018-11-14T01:44:05.306Z,99.99
2018-11-14T01:45:05.277Z,99.99
2018-11-14T01:46:05.258Z,99.99
2018-11-14T01:47:05.229Z,99.99
2018-11-14T01:48:05.204Z,99.99
2018-11-14T01:49:05.178Z,99.99
2018-11-14T01:50:05.155Z,99.99
2018-11-14T01:51:05.130Z,99.99
2018-11-14T01:52:05.106Z,99.99
2018-11-14T01:53:05.093Z,99.99
2018-11-14T01:54:05.062Z,99.99
2018-11-14T01:55:05.040Z,99.99
2018-11-14T01:56:05.011Z,99.99
2018-11-14T01:57:04.988Z,99.99
2018-11-14T01:58:04.966Z,99.99
2018-11-14T01:59:04.940Z,99.99
2018-11-14T02:00:04.917Z,99.99
2018-11-14T02:01:04.892Z,99.99
2018-11-14T02:02:04.866Z,99.99
2018-11-14T02:03:04.844Z,99.99
2018-11-14T02:04:04.821Z,99.99
2018-11-14T02:05:04.802Z,99.99
2018-11-14T02:06:04.770Z,99.99
2018-11-14T02:07:04.747Z,99.99
2018-11-14T02:08:04.728Z,99.99
2018-11-14T02:09:04.700Z,99.99
2018-11-14T02:10:04.675Z,99.99
2018-11-14T02:11:04.654Z,99.99
2018-11-14T02:12:04.635Z,99.99
2018-11-14T02:13:04.603Z,99.99
2018-11-14T02:14:04.578Z,99.99
2018-11-14T02:15:04.555Z,99.99
2018-11-14T02:16:04.530Z,99.99
2018-11-14T02:17:04.509Z,99.99
2018-11-14T02:18:04.488Z,99.99
2018-11-14T02:19:04.456Z,99.99
2018-11-14T02:20:04.433Z,99.99
2018-11-14T02:21:04.411Z,99.99
2018-11-14T02:22:04.386Z,99.99
2018-11-14T02:23:04.363Z,99.99
2018-11-14T02:24:04.337Z,99.99
2018-11-14T02:25:04.314Z,99.99
2018-11-14T02:26:04.288Z,99.99
2018-11-14T02:27:04.265Z,99.99
2018-11-14T02:28:04.239Z,99.99
2018-11-14T02:29:04.220Z,99.99
2018-11-14T02:30:04.198Z,99.99
2018-11-14T02:31:04.171Z,99.99
2018-11-14T02:32:04.154Z,99.99
2018-11-14T02:33:04.129Z,99.99
2018-11-14T02:34:12.733Z,99.99
2018-11-14T02:35:57.445Z,99.99
2018-11-14T02:36:57.407Z,99.99
2018-11-14T02:37:57.381Z,99.99
2018-11-14T02:38:57.359Z,99.99
2018-11-14T02:39:57.333Z,99.99
2018-11-14T02:40:57.317Z,99.99
2018-11-14T02:41:57.291Z,99.99
2018-11-14T02:42:57.269Z,99.99
2018-11-14T02:43:57.239Z,99.99
2018-11-14T02:44:57.218Z,99.99
2018-11-14T02:45:57.192Z,99.99
2018-11-14T02:46:57.166Z,99.99
2018-11-14T02:47:57.144Z,99.99
2018-11-14T02:48:57.125Z,99.99
2018-11-14T02:49:57.098Z,99.99
2018-11-14T02:50:57.069Z,99.99
2018-11-14T02:51:57.043Z,99.99
2018-11-14T02:52:57.021Z,99.99
2018-11-14T02:53:57.008Z,99.99
2018-11-14T02:54:56.979Z,99.99
2018-11-14T02:55:56.953Z,99.99
2018-11-14T02:56:56.922Z,99.99
2018-11-14T02:57:56.900Z,99.99
2018-11-14T02:58:56.881Z,99.99
2018-11-14T02:59:56.848Z,99.99
2018-11-14T03:00:56.833Z,99.99
2018-11-14T03:01:56.801Z,99.99
2018-11-14T03:02:56.784Z,99.99
2018-11-14T03:03:56.756Z,99.99
2018-11-14T03:04:56.744Z,99.99
2018-11-14T03:05:56.712Z,99.99
2018-11-14T03:06:56.686Z,99.99
2018-11-14T03:07:56.664Z,99.99
2018-11-14T03:08:56.632Z,99.99
2018-11-14T03:09:56.618Z,99.99
2018-11-14T03:10:56.584Z,99.99
2018-11-14T03:11:56.561Z,99.99
2018-11-14T03:12:57.308Z,99.99
2018-11-14T03:13:58.584Z,99.99
2018-11-14T03:14:56.495Z,99.99
2018-11-14T03:15:56.472Z,99.99
2018-11-14T03:16:56.446Z,99.99
2018-11-14T03:17:56.421Z,99.99
2018-11-14T03:18:56.452Z,99.99
2018-11-14T03:19:56.380Z,99.99
2018-11-14T03:20:56.361Z,99.99
2018-11-14T03:21:56.344Z,99.99
2018-11-14T03:22:56.294Z,99.99
2018-11-14T03:23:56.269Z,99.99
2018-11-14T03:24:56.246Z,99.99
2018-11-14T03:25:56.224Z,99.99
2018-11-14T03:26:56.204Z,99.99
2018-11-14T03:27:56.176Z,99.99
2018-11-14T03:28:56.147Z,99.99
2018-11-14T03:29:56.125Z,99.99
2018-11-14T03:30:56.099Z,99.99
2018-11-14T03:31:56.080Z,99.99
2018-11-14T03:32:56.058Z,99.99
2018-11-14T03:33:56.030Z,99.99
2018-11-14T03:34:56.004Z,99.99
2018-11-14T03:35:55.978Z,99.99
2018-11-14T03:36:55.956Z,99.99
2018-11-14T03:37:55.934Z,99.99
2018-11-14T03:38:55.933Z,99.99
2018-11-14T03:39:55.881Z,99.99
2018-11-14T03:40:55.865Z,99.99
2018-11-14T03:41:55.843Z,99.99
2018-11-14T03:42:55.820Z,99.99
2018-11-14T03:43:55.792Z,99.99
2018-11-14T03:44:55.760Z,99.99
2018-11-14T03:45:55.744Z,99.99
2018-11-14T03:46:55.713Z,99.99
2018-11-14T03:47:55.697Z,99.99
2018-11-14T03:48:55.667Z,99.99
2018-11-14T03:49:55.639Z,99.99
2018-11-14T03:50:55.616Z,99.99
2018-11-14T03:51:55.594Z,99.99
2018-11-14T03:52:55.578Z,99.99
2018-11-14T03:53:55.543Z,99.99
2018-11-14T03:54:55.520Z,99.99
2018-11-14T03:55:55.506Z,99.99
2018-11-14T03:56:55.475Z,99.99
2018-11-14T03:57:55.450Z,99.99
2018-11-14T03:58:55.424Z,99.99
2018-11-14T03:59:55.399Z,99.99
2018-11-14T04:00:55.373Z,99.99
2018-11-14T04:01:55.354Z,99.99
2018-11-14T04:02:55.325Z,99.99
2018-11-14T04:03:55.302Z,99.99
2018-11-14T04:04:55.282Z,99.99
2018-11-14T04:05:55.250Z,99.99
2018-11-14T04:06:55.234Z,99.99
2018-11-14T04:07:55.203Z,99.99
2018-11-14T04:08:55.180Z,99.99
2018-11-14T04:09:55.154Z,99.99
2018-11-14T04:10:55.138Z,99.99
2018-11-14T04:11:55.106Z,99.99
2018-11-14T04:12:55.087Z,99.99
2018-11-14T04:13:55.058Z,99.99
2018-11-14T04:14:55.036Z,99.99
2018-11-14T04:15:55.007Z,99.99
2018-11-14T04:16:54.984Z,99.99
2018-11-14T04:17:54.956Z,99.99
2018-11-14T04:18:54.937Z,99.99
2018-11-14T04:19:54.911Z,99.99
2018-11-14T04:20:54.891Z,99.99
2018-11-14T04:21:54.870Z,99.99
2018-11-14T04:22:54.847Z,99.99
2018-11-14T04:23:54.817Z,99.99
2018-11-14T04:24:54.796Z,99.99
2018-11-14T04:25:54.769Z,99.99
2018-11-14T04:26:54.744Z,99.99
2018-11-14T04:27:54.717Z,99.99
2018-11-14T04:28:54.698Z,99.99
2018-11-14T04:29:54.670Z,99.99
2018-11-14T04:30:54.650Z,99.99
2018-11-14T04:31:54.620Z,99.99
2018-11-14T04:32:54.600Z,99.99
2018-11-14T04:33:54.576Z,99.99
2018-11-14T04:34:54.545Z,99.99
2018-11-14T04:35:54.525Z,99.99
2018-11-14T04:36:54.503Z,99.99
2018-11-14T04:37:54.475Z,99.99
2018-11-14T04:38:54.449Z,99.99
2018-11-14T04:39:54.423Z,99.99
2018-11-14T04:40:54.401Z,99.99
2018-11-14T04:41:54.375Z,99.99
2018-11-14T04:42:54.352Z,99.99
2018-11-14T04:43:54.334Z,99.99
2018-11-14T04:44:54.306Z,99.99
2018-11-14T04:45:54.995Z,99.99
2018-11-14T04:46:54.258Z,99.99
2018-11-14T04:47:54.239Z,99.99
2018-11-14T04:48:54.238Z,99.99
2018-11-14T04:49:54.184Z,99.99
2018-11-14T04:50:54.158Z,99.99
2018-11-14T04:51:54.133Z,99.99
2018-11-14T04:52:54.113Z,99.99
2018-11-14T04:53:54.085Z,99.99
2018-11-14T04:54:54.063Z,99.99
2018-11-14T04:55:54.039Z,99.99
2018-11-14T04:56:54.011Z,99.99
2018-11-14T04:57:53.989Z,99.99
2018-11-14T04:58:53.963Z,99.99
2018-11-14T04:59:53.937Z,99.99
2018-11-14T05:00:53.915Z,99.99
2018-11-14T05:01:53.888Z,99.99
2018-11-14T05:02:53.866Z,99.99
2018-11-14T05:03:53.840Z,99.99
2018-11-14T05:04:53.814Z,99.99
2018-11-14T05:05:53.788Z,99.99
2018-11-14T05:06:53.772Z,99.99
2018-11-14T05:07:53.751Z,99.99
2018-11-14T05:08:53.719Z,99.99
2018-11-14T05:09:53.703Z,99.99
2018-11-14T05:10:53.678Z,99.99
2018-11-14T05:11:53.645Z,99.99
2018-11-14T05:12:53.630Z,99.99
2018-11-14T05:13:53.599Z,99.99
2018-11-14T05:14:53.572Z,99.99
2018-11-14T05:15:53.552Z,99.99
2018-11-14T05:16:53.521Z,99.99
2018-11-14T05:17:53.497Z,99.99
2018-11-14T05:18:53.475Z,99.99
2018-11-14T05:19:53.449Z,99.99
2018-11-14T05:20:53.437Z,99.99
2018-11-14T05:21:53.404Z,99.99
2018-11-14T05:22:53.393Z,99.99
2018-11-14T05:23:53.363Z,99.99
2018-11-14T05:24:53.328Z,99.99
2018-11-14T05:25:53.313Z,99.99
2018-11-14T05:26:53.278Z,99.99
2018-11-14T05:27:53.255Z,99.99
2018-11-14T05:28:53.236Z,99.99
2018-11-14T05:29:53.207Z,99.99
2018-11-14T05:30:53.189Z,99.99
2018-11-14T05:31:53.197Z,99.99
2018-11-14T05:32:53.134Z,99.99
2018-11-14T05:33:53.120Z,99.99
2018-11-14T05:34:53.087Z,99.99
2018-11-14T05:35:53.059Z,99.99
2018-11-14T05:36:53.035Z,99.99
2018-11-14T05:37:53.012Z,99.99
2018-11-14T05:38:52.999Z,99.99
2018-11-14T05:39:53.054Z,99.99
2018-11-14T05:40:52.942Z,99.99
2018-11-14T05:41:52.912Z,99.99
2018-11-14T05:42:52.895Z,99.99
2018-11-14T05:43:52.864Z,99.99
2018-11-14T05:44:52.838Z,99.99
2018-11-14T05:45:52.816Z,99.99
2018-11-14T05:46:52.801Z,99.99
2018-11-14T05:47:52.767Z,99.99
2018-11-14T05:48:52.742Z,99.99
2018-11-14T05:49:52.746Z,99.99
2018-11-14T05:50:52.694Z,99.99
2018-11-14T05:51:52.674Z,99.99
2018-11-14T05:52:52.651Z,99.99
2018-11-14T05:53:52.621Z,99.99
2018-11-14T05:54:52.640Z,99.99
2018-11-14T05:55:52.567Z,99.99
2018-11-14T05:56:52.550Z,99.99
2018-11-14T05:57:52.528Z,99.99
2018-11-14T05:58:52.499Z,99.99
2018-11-14T05:59:52.469Z,99.99
2018-11-14T06:00:52.447Z,99.99
2018-11-14T06:01:52.425Z,99.99
2018-11-14T06:02:52.406Z,99.99
2018-11-14T06:03:52.377Z,99.99
2018-11-14T06:04:52.352Z,99.99
2018-11-14T06:05:52.333Z,99.99
2018-11-14T06:06:52.995Z,99.99
2018-11-14T06:07:52.274Z,99.99
2018-11-14T06:08:52.251Z,99.99
2018-11-14T06:09:52.232Z,99.99
2018-11-14T06:10:52.208Z,99.99
2018-11-14T06:11:52.184Z,99.99
2018-11-14T06:12:52.158Z,99.99
2018-11-14T06:13:52.136Z,99.99
2018-11-14T06:14:52.114Z,99.99
2018-11-14T06:15:52.079Z,99.99
2018-11-14T06:16:52.057Z,99.99
2018-11-14T06:17:52.041Z,99.99
2018-11-14T06:18:52.012Z,99.99
2018-11-14T06:19:51.985Z,99.99
2018-11-14T06:20:51.961Z,99.99
2018-11-14T06:21:51.984Z,99.99
2018-11-14T06:22:51.922Z,99.99
2018-11-14T06:23:51.890Z,99.99
2018-11-14T06:24:51.865Z,99.99
2018-11-14T06:25:51.833Z,99.99
2018-11-14T06:26:51.812Z,99.99
2018-11-14T06:27:51.794Z,99.99
2018-11-14T06:28:51.765Z,99.99
2018-11-14T06:29:51.785Z,99.99
2018-11-14T06:30:51.711Z,99.99
2018-11-14T06:31:51.686Z,99.99
2018-11-14T06:32:51.670Z,99.99
2018-11-14T06:33:51.644Z,99.99
2018-11-14T06:34:51.614Z,99.99
2018-11-14T06:35:51.597Z,99.99
2018-11-14T06:36:51.567Z,99.99
2018-11-14T06:37:51.573Z,99.99
2018-11-14T06:38:51.526Z,99.99
2018-11-14T06:39:51.495Z,99.99
2018-11-14T06:40:51.470Z,99.99
2018-11-14T06:41:51.448Z,99.99
2018-11-14T06:42:51.418Z,99.99
2018-11-14T06:43:51.393Z,99.99
2018-11-14T06:44:51.373Z,99.99
2018-11-14T06:45:51.354Z,99.99
2018-11-14T06:46:51.317Z,99.99
2018-11-14T06:47:51.298Z,99.99
2018-11-14T06:48:51.269Z,99.99
2018-11-14T06:49:51.256Z,99.99
2018-11-14T06:50:51.224Z,99.99
2018-11-14T06:51:51.199Z,99.99
2018-11-14T06:52:51.180Z,99.99
2018-11-14T06:53:51.150Z,99.99
2018-11-14T06:54:51.120Z,99.99
2018-11-14T06:55:51.102Z,99.99
2018-11-14T06:56:51.072Z,99.99
2018-11-14T06:57:51.047Z,99.99
2018-11-14T06:58:51.102Z,99.99
2018-11-14T06:59:51.101Z,99.99
2018-11-14T07:00:50.976Z,99.99
2018-11-14T07:01:50.961Z,99.99
2018-11-14T07:02:50.926Z,99.99
2018-11-14T07:03:50.911Z,99.99
2018-11-14T07:04:50.951Z,99.99
2018-11-14T07:05:50.941Z,99.99
2018-11-14T07:06:50.828Z,99.99
2018-11-14T07:07:50.810Z,99.99
2018-11-14T07:08:50.780Z,99.99
2018-11-14T07:09:50.757Z,99.99
2018-11-14T07:10:50.791Z,99.99
2018-11-14T07:11:50.705Z,99.99
2018-11-14T07:12:50.682Z,99.99
2018-11-14T07:13:50.656Z,99.99
2018-11-14T07:14:50.641Z,99.99
2018-11-14T07:15:50.606Z,99.99
2018-11-14T07:16:50.587Z,99.99
2018-11-14T07:17:50.597Z,99.99
2018-11-14T07:18:50.535Z,99.99
2018-11-14T07:19:50.513Z,99.99
2018-11-14T07:20:50.492Z,99.99
2018-11-14T07:21:50.471Z,99.99
2018-11-14T07:22:50.439Z,99.99
2018-11-14T07:23:50.524Z,99.99
2018-11-14T07:24:50.388Z,99.99
2018-11-14T07:25:50.372Z,99.99
2018-11-14T07:26:50.339Z,99.99
2018-11-14T07:27:50.314Z,99.99
2018-11-14T07:28:50.294Z,99.99
2018-11-14T07:29:50.266Z,99.99
2018-11-14T07:30:50.244Z,99.99
2018-11-14T07:31:50.225Z,99.99
2018-11-14T07:32:50.193Z,99.99
2018-11-14T07:33:50.167Z,99.99
2018-11-14T07:34:50.144Z,99.99
2018-11-14T07:35:50.119Z,99.99
2018-11-14T07:36:50.102Z,99.99
2018-11-14T07:37:50.169Z,99.99
2018-11-14T07:38:50.049Z,99.99
2018-11-14T07:39:50.019Z,99.99
2018-11-14T07:40:49.997Z,99.99
2018-11-14T07:41:49.972Z,99.99
2018-11-14T07:42:49.948Z,99.99
2018-11-14T07:43:49.994Z,99.99
2018-11-14T07:44:49.906Z,99.99
2018-11-14T07:45:49.887Z,99.99
2018-11-14T07:46:49.852Z,99.99
2018-11-14T07:47:49.828Z,99.99
2018-11-14T07:48:49.874Z,99.99
2018-11-14T07:49:49.783Z,99.99
2018-11-14T07:50:49.755Z,99.99
2018-11-14T07:51:49.736Z,99.99
2018-11-14T07:52:49.705Z,99.99
2018-11-14T07:53:49.764Z,99.99
2018-11-14T07:54:49.738Z,99.99
2018-11-14T07:55:50.517Z,99.99
2018-11-14T07:56:49.625Z,99.99
2018-11-14T07:57:49.590Z,99.99
2018-11-14T07:58:49.567Z,99.99
2018-11-14T07:59:49.535Z,99.99
2018-11-14T08:00:49.514Z,99.99
2018-11-14T08:01:49.500Z,99.99
2018-11-14T08:02:49.475Z,99.99
2018-11-14T08:03:49.443Z,99.99
2018-11-14T08:04:49.427Z,99.99
2018-11-14T08:05:49.398Z,99.99
2018-11-14T08:06:49.379Z,99.99
2018-11-14T08:07:49.421Z,99.99
2018-11-14T08:08:49.335Z,99.99
2018-11-14T08:09:49.312Z,99.99
2018-11-14T08:10:49.281Z,99.99
2018-11-14T08:11:49.258Z,99.99
2018-11-14T08:12:49.242Z,99.99
2018-11-14T08:13:49.214Z,99.99
2018-11-14T08:14:49.190Z,99.99
2018-11-14T08:15:49.175Z,99.99
2018-11-14T08:16:49.146Z,99.99
2018-11-14T08:17:49.127Z,99.99
2018-11-14T08:18:49.180Z,99.99
2018-11-14T08:19:49.075Z,99.99
2018-11-14T08:20:49.058Z,99.99
2018-11-14T08:21:49.032Z,99.99
2018-11-14T08:22:49.010Z,99.28
2018-11-14T08:23:48.994Z,99.99
2018-11-14T08:24:49.021Z,99.99
2018-11-14T08:25:48.949Z,99.99
2018-11-14T08:26:48.923Z,99.99
2018-11-14T08:27:48.902Z,99.99
2018-11-14T08:28:48.885Z,99.99
2018-11-14T08:29:48.867Z,99.99
2018-11-14T08:30:49.523Z,99.99
2018-11-14T08:31:48.825Z,99.99
2018-11-14T08:32:48.799Z,99.66
2018-11-14T08:33:48.778Z,99.99
2018-11-14T08:34:48.756Z,99.99
2018-11-14T08:35:48.727Z,99.99
2018-11-14T08:36:48.709Z,99.99
2018-11-14T08:37:48.700Z,98.90
2018-11-14T08:38:48.673Z,99.32
2018-11-14T08:39:48.653Z,99.99
2018-11-14T08:40:48.635Z,99.99
2018-11-14T08:41:48.604Z,99.99
2018-11-14T08:42:48.591Z,99.99
2018-11-14T08:43:48.565Z,99.99
2018-11-14T08:44:48.543Z,99.99
2018-11-14T08:45:48.527Z,99.99
2018-11-14T08:46:48.511Z,99.99
2018-11-14T08:47:48.479Z,99.99
2018-11-14T08:48:48.460Z,99.99
2018-11-14T08:49:48.448Z,99.99
2018-11-14T08:50:48.421Z,99.99
2018-11-14T08:51:48.400Z,99.99
2018-11-14T08:52:48.387Z,99.99
2018-11-14T08:53:48.365Z,99.99
2018-11-14T08:54:48.345Z,99.99
2018-11-14T08:55:48.315Z,99.99
2018-11-14T08:56:48.309Z,99.99
2018-11-14T08:57:48.289Z,99.99
2018-11-14T08:58:48.259Z,99.99
2018-11-14T08:59:48.244Z,99.99
2018-11-14T09:00:48.233Z,99.99
2018-11-14T09:01:48.198Z,99.99
2018-11-14T09:02:48.188Z,99.99
2018-11-14T09:03:48.165Z,99.99
2018-11-14T09:04:48.149Z,99.99
2018-11-14T09:05:48.117Z,99.99
2018-11-14T09:06:48.105Z,99.99
2018-11-14T09:07:49.118Z,99.99
2018-11-14T09:08:48.059Z,99.99
2018-11-14T09:09:48.040Z,99.99
2018-11-14T09:10:48.609Z,99.99
2018-11-14T09:11:48.042Z,99.99
2018-11-14T09:12:48.010Z,99.99
2018-11-14T09:13:47.969Z,99.99
2018-11-14T09:14:47.982Z,99.99
2018-11-14T09:15:47.927Z,99.99
2018-11-14T09:16:47.903Z,99.99
2018-11-14T09:17:47.886Z,99.99
2018-11-14T09:18:47.917Z,99.99
2018-11-14T09:19:47.845Z,99.99
2018-11-14T09:20:47.828Z,99.99
2018-11-14T09:21:47.817Z,99.99
2018-11-14T09:22:47.788Z,99.99
2018-11-14T09:23:47.826Z,99.99
2018-11-14T09:24:47.813Z,99.99
2018-11-14T09:25:47.736Z,99.99
2018-11-14T09:26:47.716Z,99.99
2018-11-14T09:27:47.697Z,99.99
2018-11-14T09:28:47.678Z,99.99
2018-11-14T09:29:47.653Z,99.99
2018-11-14T09:30:47.636Z,99.99
2018-11-14T09:31:47.618Z,99.99
2018-11-14T09:32:47.657Z,99.99
2018-11-14T09:33:47.575Z,99.90
2018-11-14T09:34:47.573Z,99.57
2018-11-14T09:35:47.540Z,99.48
2018-11-14T09:36:47.527Z,97.61
2018-11-14T09:37:47.508Z,96.22
2018-11-14T09:38:47.490Z,94.41
2018-11-14T09:39:47.462Z,93.55
2018-11-14T09:40:47.453Z,92.92
2018-11-14T09:41:47.433Z,91.77
2018-11-14T09:42:47.407Z,91.15
2018-11-14T09:43:47.418Z,89.48
2018-11-14T09:44:47.379Z,90.91
2018-11-14T09:45:47.350Z,90.19
2018-11-14T09:46:47.334Z,89.90
2018-11-14T09:47:47.315Z,91.05
2018-11-14T09:48:47.303Z,89.81
2018-11-14T09:49:47.280Z,89.09
2018-11-14T09:50:47.264Z,89.09
2018-11-14T09:51:47.245Z,89.38
2018-11-14T09:52:47.226Z,89.00
2018-11-14T09:53:47.209Z,89.09
2018-11-14T09:54:47.194Z,88.90
2018-11-14T09:55:47.175Z,89.58
2018-11-14T09:56:47.195Z,88.86
2018-11-14T09:57:47.146Z,90.58
2018-11-14T09:58:48.103Z,90.53
2018-11-14T09:59:47.113Z,90.48
2018-11-14T10:00:47.171Z,91.06
2018-11-14T10:01:47.075Z,91.73
2018-11-14T10:02:47.113Z,92.35
2018-11-14T10:03:47.034Z,90.63
2018-11-14T10:04:47.018Z,89.76
2018-11-14T10:05:47.051Z,90.58
2018-11-14T10:06:46.989Z,89.95
2018-11-14T10:07:46.970Z,89.38
2018-11-14T10:08:46.960Z,89.72
2018-11-14T10:09:46.943Z,91.35
2018-11-14T10:10:46.930Z,90.96
2018-11-14T10:11:46.900Z,90.20
2018-11-14T10:12:46.929Z,91.01
2018-11-14T10:13:46.868Z,90.67
2018-11-14T10:14:46.852Z,89.33
2018-11-14T10:15:46.896Z,87.33
2018-11-14T10:16:46.827Z,88.86
2018-11-14T10:17:46.804Z,89.24
2018-11-14T10:18:46.788Z,89.67
2018-11-14T10:19:46.775Z,89.29
2018-11-14T10:20:46.763Z,89.00
2018-11-14T10:21:46.747Z,87.81
2018-11-14T10:22:46.727Z,88.57
2018-11-14T10:23:46.712Z,89.15
2018-11-14T10:24:46.693Z,88.62
2018-11-14T10:25:46.687Z,88.00
2018-11-14T10:26:46.667Z,89.05
2018-11-14T10:27:46.664Z,89.34
2018-11-14T10:28:46.632Z,89.91
2018-11-14T10:29:46.619Z,90.58
2018-11-14T10:30:46.613Z,90.16
2018-11-14T10:31:46.688Z,90.82
2018-11-14T10:32:46.575Z,90.53
2018-11-14T10:33:46.559Z,91.30
2018-11-14T10:34:46.546Z,92.11
2018-11-14T10:35:46.530Z,90.30
2018-11-14T10:36:46.515Z,89.91
2018-11-14T10:37:46.499Z,91.06
2018-11-14T10:38:46.486Z,91.06
2018-11-14T10:39:46.470Z,91.92
2018-11-14T10:40:46.448Z,91.92
2018-11-14T10:41:46.441Z,92.21
2018-11-14T10:42:46.481Z,91.16
2018-11-14T10:43:46.406Z,90.63
2018-11-14T10:44:46.396Z,92.59
2018-11-14T10:45:46.378Z,92.83
2018-11-14T10:46:46.361Z,93.16
2018-11-14T10:47:46.345Z,92.88
2018-11-14T10:48:46.333Z,94.89
2018-11-14T10:49:46.322Z,92.97
2018-11-14T10:50:46.308Z,93.55
2018-11-14T10:51:46.293Z,92.79
2018-11-14T10:52:46.274Z,92.64
2018-11-14T10:53:46.258Z,92.40
2018-11-14T10:54:46.242Z,93.07
2018-11-14T10:55:46.231Z,92.30
2018-11-14T10:56:46.213Z,93.07
2018-11-14T10:57:46.203Z,92.64
2018-11-14T10:58:46.192Z,91.88
2018-11-14T10:59:46.168Z,92.21
2018-11-14T11:00:46.159Z,93.55
2018-11-14T11:01:46.146Z,93.45
2018-11-14T11:02:46.136Z,93.55
2018-11-14T11:03:46.112Z,93.07
2018-11-14T11:04:46.102Z,93.60
2018-11-14T11:05:46.089Z,93.55
2018-11-14T11:06:46.070Z,94.79
2018-11-14T11:07:46.093Z,94.12
2018-11-14T11:08:46.119Z,95.12
2018-11-14T11:09:46.025Z,94.17
2018-11-14T11:10:46.016Z,92.83
2018-11-14T11:11:45.994Z,93.40
2018-11-14T11:12:45.987Z,93.12
2018-11-14T11:13:46.030Z,92.97
2018-11-14T11:14:45.955Z,93.36
2018-11-14T11:15:45.944Z,94.31
2018-11-14T11:16:45.926Z,94.22
2018-11-14T11:17:45.922Z,94.51
2018-11-14T11:18:45.899Z,95.46
2018-11-14T11:19:45.890Z,95.84
2018-11-14T11:20:45.888Z,95.98
2018-11-14T11:21:45.862Z,93.60
2018-11-14T11:22:45.852Z,94.07
2018-11-14T11:23:45.836Z,93.88
2018-11-14T11:24:45.823Z,94.07
2018-11-14T11:25:45.810Z,93.84
2018-11-14T11:26:45.791Z,94.70
2018-11-14T11:27:45.778Z,94.55
2018-11-14T11:28:45.769Z,93.50
2018-11-14T11:29:45.753Z,94.46
2018-11-14T11:30:45.775Z,95.56
2018-11-14T11:31:45.741Z,95.75
2018-11-14T11:32:45.711Z,97.18
2018-11-14T11:33:45.697Z,96.89
2018-11-14T11:34:45.685Z,96.51
2018-11-14T11:35:45.675Z,97.18
2018-11-14T11:36:45.659Z,96.32
2018-11-14T11:37:45.652Z,97.47
2018-11-14T11:38:45.634Z,97.37
2018-11-14T11:39:45.620Z,97.28
2018-11-14T11:40:45.626Z,96.51
2018-11-14T11:41:45.595Z,96.66
2018-11-14T11:42:45.586Z,96.22
2018-11-14T11:43:45.566Z,96.80
2018-11-14T11:44:45.560Z,97.18
2018-11-14T11:45:45.544Z,97.66
2018-11-14T11:46:45.528Z,97.56
2018-11-14T11:47:45.521Z,99.09
2018-11-14T11:48:45.503Z,98.23
2018-11-14T11:49:45.496Z,97.08
2018-11-14T11:50:45.486Z,97.52
2018-11-14T11:51:45.470Z,99.14
2018-11-14T11:52:45.457Z,99.99
2018-11-14T11:53:45.445Z,99.99
2018-11-14T11:54:45.426Z,99.99
2018-11-14T11:55:45.413Z,99.99
2018-11-14T11:56:45.400Z,99.99
2018-11-14T11:57:45.394Z,99.99
2018-11-14T11:58:45.374Z,99.99
2018-11-14T11:59:45.397Z,99.99
2018-11-14T12:00:45.369Z,99.99
2018-11-14T12:01:45.336Z,99.99
2018-11-14T12:02:45.327Z,99.99
2018-11-14T12:03:45.307Z,99.99
2018-11-14T12:04:45.303Z,99.99
2018-11-14T12:05:45.308Z,99.99
2018-11-14T12:06:45.271Z,99.99
2018-11-14T12:07:45.258Z,99.99
2018-11-14T12:08:45.241Z,99.99
2018-11-14T12:09:45.228Z,99.99
2018-11-14T12:10:45.263Z,99.99
2018-11-14T12:11:45.204Z,99.99
2018-11-14T12:12:45.233Z,99.99
2018-11-14T12:13:45.254Z,99.99
2018-11-14T12:14:45.163Z,99.99
2018-11-14T12:15:45.147Z,99.99
2018-11-14T12:16:45.143Z,99.99
2018-11-14T12:17:45.141Z,99.99
2018-11-14T12:18:45.113Z,99.99
2018-11-14T12:19:45.096Z,99.99
2018-11-14T12:20:45.082Z,99.99
2018-11-14T12:21:45.075Z,99.99
2018-11-14T12:22:45.065Z,99.99
2018-11-14T12:23:45.089Z,99.99
2018-11-14T12:24:45.030Z,99.99
2018-11-14T12:25:45.021Z,99.99
2018-11-14T12:26:45.006Z,99.99
2018-11-14T12:27:45.010Z,99.99
2018-11-14T12:28:44.989Z,99.99
2018-11-14T12:29:44.968Z,99.99
2018-11-14T12:30:45.049Z,99.99
2018-11-14T12:31:44.941Z,99.99
2018-11-14T12:32:44.926Z,99.99
2018-11-14T12:33:44.906Z,99.99
2018-11-14T12:34:44.930Z,99.99
2018-11-14T12:35:45.026Z,99.99
2018-11-14T12:36:44.871Z,99.99
2018-11-14T12:37:44.855Z,99.99
2018-11-14T12:38:44.881Z,99.99
2018-11-14T12:39:44.826Z,99.99
2018-11-14T12:40:44.807Z,99.99
2018-11-14T12:41:44.807Z,99.99
2018-11-14T12:42:44.785Z,99.99
2018-11-14T12:43:44.756Z,99.99
2018-11-14T12:44:44.739Z,99.99
2018-11-14T12:45:44.724Z,99.99
2018-11-14T12:46:44.711Z,99.99
2018-11-14T12:47:44.695Z,99.99
2018-11-14T12:48:44.680Z,99.99
2018-11-14T12:49:44.666Z,99.99
2018-11-14T12:50:44.651Z,99.99
2018-11-14T12:51:44.632Z,99.99
2018-11-14T12:52:44.678Z,99.99